Time;durP1;ratioP1;P1;durP2;ratioP2;P2;SDS_P1;SDS_P2;PMS_P1;PMS_P2;Temp;Humidity;BMP_temperature;BMP_pressure;BME280_temperature;BME280_humidity;BME280_pressure;Samples;Min_cycle;Max_cycle;Signal;HPM_P1;HPM_P2
2022/03/27 00:01:25;;;;;;;2.55;1.40;;;24.20;36.50;;;;;;5003216;28;20053;-61
2022/03/27 00:03:50;;;;;;;2.67;1.60;;;24.20;36.00;;;;;;5006044;28;20034;-64
2022/03/27 00:06:16;;;;;;;2.35;1.55;;;24.10;36.00;;;;;;5006291;28;20471;-63
2022/03/27 00:08:42;;;;;;;1.90;1.40;;;24.10;36.00;;;;;;5005923;28;20387;-68
2022/03/27 00:11:28;;;;;;;2.60;1.60;;;24.10;36.00;;;;;;5005116;28;20491;-63
2022/03/27 00:13:58;;;;;;;2.05;1.50;;;24.10;36.00;;;;;;5005597;28;20445;-61
2022/03/27 00:16:24;;;;;;;2.15;1.40;;;24.10;36.00;;;;;;5005528;28;20034;-67
2022/03/27 00:18:50;;;;;;;1.90;1.40;;;24.00;36.00;;;;;;5003911;28;20037;-62
2022/03/27 00:21:15;;;;;;;2.55;1.50;;;24.00;36.00;;;;;;5005637;28;20038;-63
2022/03/27 00:23:43;;;;;;;2.35;1.35;;;24.00;36.00;;;;;;5005337;28;20468;-66
2022/03/27 00:26:09;;;;;;;3.08;1.40;;;24.00;36.10;;;;;;5005294;28;20314;-66
2022/03/27 00:28:36;;;;;;;3.42;1.65;;;23.90;36.00;;;;;;5005048;28;20530;-69
2022/03/27 00:31:04;;;;;;;2.47;1.50;;;23.90;36.00;;;;;;5004325;28;20034;-68
2022/03/27 00:33:31;;;;;;;3.50;1.90;;;23.90;36.00;;;;;;4999837;28;20475;-69
2022/03/27 00:35:58;;;;;;;2.40;1.63;;;23.90;36.00;;;;;;5004161;28;20028;-65
2022/03/27 00:38:29;;;;;;;2.20;1.45;;;23.90;36.10;;;;;;5005668;28;20041;-63
2022/03/27 00:40:56;;;;;;;2.50;1.50;;;23.80;36.00;;;;;;5005112;28;20040;-66
2022/03/27 00:43:23;;;;;;;2.17;1.35;;;23.80;36.60;;;;;;5004810;28;20175;-62
2022/03/27 00:45:53;;;;;;;2.33;1.67;;;23.80;36.10;;;;;;5002550;28;20479;-69
2022/03/27 00:48:23;;;;;;;2.25;1.40;;;23.80;36.10;;;;;;5017830;28;20037;-62
2022/03/27 00:50:51;;;;;;;2.28;1.42;;;23.70;36.10;;;;;;5003913;28;20117;-66
2022/03/27 00:53:23;;;;;;;2.50;1.50;;;23.70;36.10;;;;;;5003778;28;20037;-66
2022/03/27 00:55:49;;;;;;;2.28;1.30;;;23.70;36.10;;;;;;5004131;28;20497;-69
2022/03/27 00:58:16;;;;;;;2.88;1.40;;;23.70;36.10;;;;;;5003545;28;20038;-64
2022/03/27 01:00:55;;;;;;;2.92;1.40;;;23.70;36.10;;;;;;5002578;28;20103;-66
2022/03/27 01:03:26;;;;;;;3.05;1.55;;;23.70;36.20;;;;;;4995800;28;20060;-64
2022/03/27 01:05:53;;;;;;;3.05;1.35;;;23.70;36.20;;;;;;5001373;28;20156;-63
2022/03/27 01:11:14;;;;;;;2.22;1.45;;;23.60;36.20;;;;;;5002895;28;20095;-63
2022/03/27 01:13:43;;;;;;;2.42;1.50;;;23.60;36.20;;;;;;5004910;28;20442;-66
2022/03/27 01:16:36;;;;;;;2.70;1.50;;;23.60;36.20;;;;;;5004091;28;20334;-65
2022/03/27 01:19:04;;;;;;;2.20;1.42;;;23.60;36.20;;;;;;4994438;28;20442;-68
2022/03/27 01:21:29;;;;;;;2.17;1.30;;;23.50;36.20;;;;;;5000725;28;20121;-69
2022/03/27 01:23:56;;;;;;;2.38;1.50;;;23.50;36.20;;;;;;5005430;28;20545;-68
2022/03/27 01:26:23;;;;;;;2.45;1.50;;;23.40;36.20;;;;;;5002169;28;20026;-65
2022/03/27 01:28:50;;;;;;;2.20;1.30;;;23.40;36.20;;;;;;5005060;28;20177;-64
2022/03/27 01:31:17;;;;;;;1.85;1.27;;;23.40;36.30;;;;;;5001862;28;20084;-65
2022/03/27 01:33:42;;;;;;;1.98;1.40;;;23.40;36.20;;;;;;5003003;28;20057;-63
2022/03/27 01:36:08;;;;;;;2.22;1.50;;;23.40;36.30;;;;;;5003600;28;20026;-64
2022/03/27 01:38:34;;;;;;;2.90;1.67;;;23.30;36.30;;;;;;5003736;28;20029;-63
2022/03/27 01:41:00;;;;;;;2.28;1.40;;;23.30;36.30;;;;;;5005411;28;20029;-66
2022/03/27 01:43:26;;;;;;;2.50;1.67;;;23.30;36.80;;;;;;4997140;28;20144;-65
2022/03/27 01:45:51;;;;;;;2.13;1.50;;;23.30;36.30;;;;;;5003296;28;20026;-66
2022/03/27 01:48:17;;;;;;;2.10;1.40;;;23.20;36.30;;;;;;5003231;28;20105;-64
2022/03/27 01:50:42;;;;;;;2.38;1.50;;;23.20;36.30;;;;;;5004566;28;20069;-65
2022/03/27 01:53:08;;;;;;;2.35;1.50;;;23.20;36.40;;;;;;5003469;28;20042;-69
2022/03/27 01:55:34;;;;;;;2.40;1.65;;;23.20;36.40;;;;;;5002102;28;20665;-66
2022/03/27 01:58:00;;;;;;;2.40;1.60;;;23.20;36.40;;;;;;5002691;28;20087;-68
2022/03/27 02:00:25;;;;;;;2.22;1.50;;;23.10;36.40;;;;;;5002441;28;20542;-62
2022/03/27 02:02:52;;;;;;;2.15;1.30;;;23.10;36.40;;;;;;5001001;28;20100;-60
2022/03/27 02:05:18;;;;;;;1.90;1.27;;;23.10;36.40;;;;;;5020795;28;20038;-62
2022/03/27 02:07:45;;;;;;;2.58;1.40;;;23.10;36.40;;;;;;5004641;28;20038;-64
2022/03/27 02:10:11;;;;;;;2.22;1.50;;;23.10;37.00;;;;;;5003302;28;20034;-64
2022/03/27 02:12:37;;;;;;;3.15;1.58;;;23.00;36.40;;;;;;5002767;28;20034;-68
2022/03/27 02:15:06;;;;;;;1.92;1.27;;;23.00;36.50;;;;;;5001596;28;20087;-69
2022/03/27 02:17:32;;;;;;;;;;;23.00;36.50;;;;;;5003162;28;20030;-65
2022/03/27 02:19:59;;;;;;;2.88;1.60;;;23.00;36.40;;;;;;5003882;28;19910;-67
2022/03/27 02:22:24;;;;;;;2.08;1.30;;;23.00;36.50;;;;;;5004033;28;20095;-66
2022/03/27 02:24:50;;;;;;;3.50;1.40;;;23.00;36.50;;;;;;5002428;28;20021;-63
2022/03/27 02:27:16;;;;;;;2.40;1.60;;;23.00;36.50;;;;;;5002596;28;20030;-61
2022/03/27 02:29:41;;;;;;;2.40;1.42;;;23.00;36.50;;;;;;5002654;28;20450;-60
2022/03/27 02:32:08;;;;;;;2.72;1.63;;;22.90;36.50;;;;;;4997643;28;20030;-63
2022/03/27 02:34:33;;;;;;;2.25;1.65;;;22.90;36.50;;;;;;5001810;28;20629;-67
2022/03/27 02:36:59;;;;;;;2.05;1.38;;;22.90;36.50;;;;;;5004513;28;20056;-61
2022/03/27 02:39:25;;;;;;;2.10;1.35;;;22.90;36.50;;;;;;5004645;28;20076;-64
2022/03/27 02:41:50;;;;;;;2.38;1.65;;;22.90;36.50;;;;;;5001594;28;20038;-64
2022/03/27 02:44:16;;;;;;;2.72;1.63;;;22.90;36.50;;;;;;5004409;28;20026;-65
2022/03/27 02:46:42;;;;;;;2.15;1.33;;;22.80;36.50;;;;;;5000277;28;20294;-63
2022/03/27 02:49:09;;;;;;;2.30;1.50;;;22.90;36.60;;;;;;5004041;28;20030;-63
2022/03/27 02:51:34;;;;;;;2.75;1.60;;;22.80;36.50;;;;;;5003993;28;20129;-63
2022/03/27 02:54:00;;;;;;;2.65;1.50;;;22.80;36.50;;;;;;5003992;28;20109;-63
2022/03/27 02:56:25;;;;;;;2.08;1.45;;;22.80;36.60;;;;;;5003450;28;20132;-66
2022/03/27 02:58:51;;;;;;;2.20;1.50;;;22.80;36.60;;;;;;5003420;28;20030;-62
2022/03/27 03:01:17;;;;;;;2.63;1.60;;;22.80;36.60;;;;;;5001595;28;20140;-64
2022/03/27 03:03:42;;;;;;;2.17;1.40;;;22.80;36.60;;;;;;5001070;28;20052;-61
2022/03/27 03:06:09;;;;;;;2.72;1.50;;;22.70;36.60;;;;;;5004663;28;20046;-62
2022/03/27 03:08:38;;;;;;;2.92;1.58;;;22.70;36.60;;;;;;5003003;28;20061;-64
2022/03/27 03:11:04;;;;;;;2.55;1.70;;;22.80;36.60;;;;;;5002986;28;20034;-63
2022/03/27 03:13:29;;;;;;;2.72;1.52;;;22.70;36.60;;;;;;5002571;28;20449;-66
2022/03/27 03:15:56;;;;;;;2.72;1.80;;;22.70;36.60;;;;;;5003236;28;20041;-64
2022/03/27 03:18:23;;;;;;;2.75;1.65;;;22.70;36.60;;;;;;4999938;28;20502;-61
2022/03/27 03:20:49;;;;;;;2.53;1.40;;;22.70;36.60;;;;;;5003666;28;20489;-66
2022/03/27 03:23:14;;;;;;;2.90;1.45;;;22.60;36.60;;;;;;5001342;28;20026;-64
2022/03/27 03:25:42;;;;;;;2.45;1.45;;;22.70;36.60;;;;;;5004517;28;20022;-62
2022/03/27 03:28:09;;;;;;;2.50;1.40;;;22.60;36.60;;;;;;5000687;28;20128;-66
2022/03/27 03:30:34;;;;;;;2.47;1.52;;;22.60;36.60;;;;;;4998787;28;20038;-62
2022/03/27 03:33:00;;;;;;;2.25;1.40;;;22.60;36.70;;;;;;4999827;28;20493;-61
2022/03/27 03:35:25;;;;;;;2.15;1.48;;;22.60;36.70;;;;;;5003545;28;20532;-61
2022/03/27 03:37:51;;;;;;;2.17;1.40;;;22.60;36.70;;;;;;5002938;28;20026;-59
2022/03/27 03:40:18;;;;;;;2.25;1.50;;;22.60;36.60;;;;;;5003478;28;20479;-61
2022/03/27 03:42:44;;;;;;;2.17;1.40;;;22.60;36.60;;;;;;5002560;28;20344;-60
2022/03/27 03:45:10;;;;;;;2.30;1.50;;;22.60;36.60;;;;;;5020230;28;20683;-66
2022/03/27 03:47:35;;;;;;;2.55;1.70;;;22.50;36.60;;;;;;5002171;28;20378;-65
2022/03/27 03:50:01;;;;;;;2.33;1.42;;;22.50;36.60;;;;;;5006795;28;20033;-61
2022/03/27 03:52:27;;;;;;;2.60;1.55;;;22.60;36.70;;;;;;5005244;28;20014;-61
2022/03/27 03:54:52;;;;;;;1.90;1.25;;;22.50;36.70;;;;;;5006495;28;20376;-62
2022/03/27 03:57:18;;;;;;;2.20;1.50;;;22.50;36.70;;;;;;5006713;28;20014;-60
2022/03/27 03:59:44;;;;;;;1.95;1.40;;;22.50;36.70;;;;;;5003725;28;20025;-64
2022/03/27 04:02:13;;;;;;;2.33;1.48;;;22.50;36.70;;;;;;5003872;28;20064;-62
2022/03/27 04:04:39;;;;;;;1.95;1.38;;;22.50;36.70;;;;;;5004741;28;20512;-62
2022/03/27 04:07:05;;;;;;;2.13;1.45;;;22.50;36.70;;;;;;5005488;28;20026;-64
2022/03/27 04:09:31;;;;;;;2.30;1.60;;;22.50;36.70;;;;;;5002471;28;20038;-67
2022/03/27 04:11:57;;;;;;;2.10;1.35;;;22.50;36.70;;;;;;5006721;28;20504;-62
2022/03/27 04:14:22;;;;;;;2.08;1.40;;;22.50;36.70;;;;;;5005511;28;20028;-62
2022/03/27 04:16:49;;;;;;;1.45;1.20;;;22.50;36.70;;;;;;5002962;28;20033;-64
2022/03/27 04:19:15;;;;;;;2.50;1.63;;;22.50;36.70;;;;;;5006366;28;20029;-62
2022/03/27 04:21:42;;;;;;;2.40;1.50;;;22.50;37.30;;;;;;5006675;28;20069;-67
2022/03/27 04:24:08;;;;;;;2.30;1.40;;;22.50;36.80;;;;;;5005014;28;20029;-59
2022/03/27 04:26:34;;;;;;;2.88;1.58;;;22.50;36.70;;;;;;5006316;28;20400;-62
2022/03/27 04:29:02;;;;;;;2.35;1.45;;;22.40;36.70;;;;;;5004617;28;20133;-61
2022/03/27 04:31:29;;;;;;;2.70;1.50;;;22.40;36.70;;;;;;5004422;28;20034;-61
2022/03/27 04:33:55;;;;;;;2.28;1.38;;;22.40;36.80;;;;;;5003416;28;20092;-64
2022/03/27 04:36:20;;;;;;;2.17;1.45;;;22.40;36.80;;;;;;5006738;28;20021;-62
2022/03/27 04:38:46;;;;;;;2.10;1.50;;;22.40;36.80;;;;;;5006798;28;20033;-64
2022/03/27 04:41:11;;;;;;;1.75;1.40;;;22.40;37.30;;;;;;5006267;28;20474;-64
2022/03/27 04:43:37;;;;;;;2.40;1.50;;;22.40;36.80;;;;;;5004496;28;20030;-59
2022/03/27 04:46:03;;;;;;;3.00;1.50;;;22.40;36.80;;;;;;4998794;28;20042;-64
2022/03/27 04:48:29;;;;;;;2.83;1.50;;;22.40;36.80;;;;;;5003228;28;20466;-67
2022/03/27 04:50:54;;;;;;;2.20;1.50;;;22.30;36.80;;;;;;5002652;28;20034;-64
2022/03/27 04:53:20;;;;;;;2.55;1.73;;;22.30;36.80;;;;;;5005042;28;20033;-67
2022/03/27 04:55:46;;;;;;;2.00;1.30;;;22.30;36.90;;;;;;5002180;28;20030;-60
2022/03/27 04:58:12;;;;;;;2.45;1.52;;;22.30;36.90;;;;;;5005412;28;20038;-61
2022/03/27 05:00:38;;;;;;;2.10;1.40;;;22.30;36.90;;;;;;5000965;28;20115;-63
2022/03/27 05:03:05;;;;;;;1.85;1.30;;;22.30;36.90;;;;;;5004281;28;20038;-63
2022/03/27 05:05:31;;;;;;;1.92;1.30;;;22.30;36.90;;;;;;5001335;28;20494;-63
2022/03/27 05:07:58;;;;;;;1.73;1.20;;;22.30;37.00;;;;;;5003885;28;20061;-65
2022/03/27 05:10:24;;;;;;;2.05;1.50;;;22.30;37.00;;;;;;5004085;28;20041;-63
2022/03/27 05:12:50;;;;;;;2.10;1.30;;;22.30;37.00;;;;;;5005542;28;21760;-64
2022/03/27 05:15:16;;;;;;;1.80;1.30;;;22.30;37.00;;;;;;5000351;28;20033;-64
2022/03/27 05:17:51;;;;;;;2.33;1.50;;;22.30;37.00;;;;;;5001455;28;20054;-66
2022/03/27 05:20:17;;;;;;;2.40;1.58;;;22.20;37.00;;;;;;5005869;28;20422;-67
2022/03/27 05:22:43;;;;;;;2.38;1.40;;;22.20;37.00;;;;;;5003251;28;20018;-65
2022/03/27 05:25:10;;;;;;;2.00;1.50;;;22.20;37.00;;;;;;4996955;28;20084;-64
2022/03/27 05:27:46;;;;;;;3.05;1.40;;;22.20;37.00;;;;;;5004289;28;20445;-64
2022/03/27 05:30:12;;;;;;;1.75;1.25;;;22.20;37.00;;;;;;4999704;28;20057;-64
2022/03/27 05:32:38;;;;;;;2.45;1.52;;;22.20;37.00;;;;;;4999238;28;20129;-61
2022/03/27 05:35:04;;;;;;;2.38;1.55;;;22.20;37.10;;;;;;5002388;28;20491;-62
2022/03/27 05:37:33;;;;;;;3.03;1.60;;;22.20;37.10;;;;;;5004240;28;20122;-60
2022/03/27 05:39:59;;;;;;;2.75;1.60;;;22.20;37.10;;;;;;5005811;28;20050;-59
2022/03/27 05:42:24;;;;;;;3.15;1.40;;;22.20;37.20;;;;;;5000586;28;20474;-62
2022/03/27 05:44:50;;;;;;;2.10;1.35;;;22.10;37.10;;;;;;5001813;28;20045;-67
2022/03/27 05:47:16;;;;;;;2.15;1.42;;;22.10;37.20;;;;;;4995369;28;20410;-62
2022/03/27 05:49:41;;;;;;;2.53;1.50;;;22.10;37.20;;;;;;5004751;28;20510;-61
2022/03/27 05:52:07;;;;;;;2.15;1.33;;;22.10;37.20;;;;;;5002343;28;20097;-66
2022/03/27 05:54:32;;;;;;;1.90;1.40;;;22.10;37.30;;;;;;5003870;28;20087;-64
2022/03/27 05:56:58;;;;;;;2.20;1.40;;;22.10;37.20;;;;;;5002547;28;20065;-65
2022/03/27 05:59:24;;;;;;;2.00;1.42;;;22.10;37.30;;;;;;4999080;28;20029;-62
2022/03/27 06:01:49;;;;;;;2.35;1.40;;;22.10;37.30;;;;;;4997906;28;20041;-62
2022/03/27 06:04:15;;;;;;;2.05;1.40;;;22.10;37.30;;;;;;4998435;28;20038;-61
2022/03/27 06:06:40;;;;;;;2.28;1.48;;;22.10;37.30;;;;;;4999793;28;20380;-61
2022/03/27 06:09:06;;;;;;;3.25;1.50;;;22.10;37.30;;;;;;4995346;28;20394;-66
2022/03/27 06:11:32;;;;;;;2.40;1.40;;;22.10;37.30;;;;;;4997708;28;20136;-66
2022/03/27 06:13:57;;;;;;;2.03;1.25;;;22.10;37.30;;;;;;5002545;28;20049;-61
2022/03/27 06:16:23;;;;;;;2.33;1.40;;;22.10;37.30;;;;;;4998706;28;20041;-67
2022/03/27 06:18:49;;;;;;;2.10;1.50;;;22.10;37.30;;;;;;5002049;28;20026;-59
2022/03/27 06:21:14;;;;;;;2.22;1.48;;;22.10;37.40;;;;;;5001054;28;20609;-64
2022/03/27 06:23:40;;;;;;;2.17;1.38;;;22.10;37.40;;;;;;5000257;28;20048;-63
2022/03/27 06:26:06;;;;;;;2.75;1.60;;;22.10;37.40;;;;;;5003100;28;20184;-63
2022/03/27 06:28:32;;;;;;;2.50;1.50;;;22.10;37.40;;;;;;5002051;28;20034;-64
2022/03/27 06:30:57;;;;;;;2.95;1.50;;;22.10;37.40;;;;;;4996762;28;20049;-59
2022/03/27 06:33:23;;;;;;;3.10;1.42;;;22.10;37.40;;;;;;4998994;28;20409;-63
2022/03/27 06:35:49;;;;;;;2.85;1.58;;;22.10;37.40;;;;;;5005123;28;20136;-61
2022/03/27 06:38:14;;;;;;;2.97;1.55;;;22.10;37.40;;;;;;5004268;28;20029;-65
2022/03/27 06:40:40;;;;;;;2.65;1.60;;;22.10;37.50;;;;;;5003731;28;20575;-66
2022/03/27 06:43:05;;;;;;;2.33;1.33;;;22.00;37.40;;;;;;5003324;28;20322;-64
2022/03/27 06:45:32;;;;;;;2.25;1.30;;;22.00;37.40;;;;;;5001210;28;20022;-61
2022/03/27 06:47:58;;;;;;;1.98;1.27;;;22.00;37.40;;;;;;5001910;28;20055;-61
2022/03/27 06:50:24;;;;;;;3.00;1.50;;;22.00;37.50;;;;;;5002808;28;20088;-60
2022/03/27 06:52:50;;;;;;;2.25;1.30;;;22.00;37.50;;;;;;5002107;28;20064;-67
2022/03/27 06:55:16;;;;;;;1.70;1.30;;;22.00;37.50;;;;;;5002138;28;20041;-62
2022/03/27 06:57:42;;;;;;;1.90;1.23;;;22.00;37.50;;;;;;5000736;28;20474;-65
2022/03/27 07:03:09;;;;;;;3.38;1.58;;;22.00;37.50;;;;;;4996648;28;20096;-66
2022/03/27 07:05:41;;;;;;;2.63;1.50;;;22.00;37.50;;;;;;4998376;28;20136;-64
2022/03/27 07:08:09;;;;;;;2.55;1.35;;;22.00;37.50;;;;;;4997914;28;20026;-67
2022/03/27 07:10:37;;;;;;;2.20;1.35;;;22.00;37.60;;;;;;5000220;28;20550;-65
2022/03/27 07:13:03;;;;;;;1.90;1.23;;;22.00;37.60;;;;;;5001318;28;20096;-61
2022/03/27 07:15:29;;;;;;;2.17;1.40;;;22.00;37.60;;;;;;5000554;28;20076;-59
2022/03/27 07:17:55;;;;;;;2.05;1.42;;;22.00;37.60;;;;;;5001175;28;20135;-61
2022/03/27 07:20:26;;;;;;;2.13;1.42;;;22.00;37.60;;;;;;5007368;28;20053;-59
2022/03/27 07:22:54;;;;;;;2.30;1.48;;;22.00;37.60;;;;;;5005480;28;20132;-66
2022/03/27 07:25:24;;;;;;;2.40;1.40;;;22.00;37.60;;;;;;5006295;28;20033;-64
2022/03/27 07:27:49;;;;;;;2.28;1.52;;;22.00;37.60;;;;;;5004345;28;20167;-63
2022/03/27 07:30:15;;;;;;;2.15;1.40;;;22.00;37.60;;;;;;5002326;28;20104;-65
2022/03/27 07:32:41;;;;;;;2.10;1.30;;;22.00;37.70;;;;;;4998880;28;20087;-61
2022/03/27 07:35:12;;;;;;;2.38;1.30;;;22.00;37.60;;;;;;5002723;28;20041;-67
2022/03/27 07:37:38;;;;;;;2.00;1.40;;;22.00;37.70;;;;;;5008379;28;20169;-62
2022/03/27 07:40:08;;;;;;;2.50;1.40;;;22.00;37.70;;;;;;5003904;28;20079;-60
2022/03/27 07:42:35;;;;;;;2.05;1.30;;;22.00;37.70;;;;;;5005525;28;20034;-64
2022/03/27 07:45:00;;;;;;;2.10;1.30;;;22.00;37.70;;;;;;5002866;28;20461;-66
2022/03/27 07:47:26;;;;;;;1.95;1.20;;;21.90;37.70;;;;;;5004247;28;20542;-67
2022/03/27 07:49:52;;;;;;;2.05;1.20;;;21.90;37.70;;;;;;5000416;28;20048;-61
2022/03/27 07:52:17;;;;;;;1.92;1.30;;;22.00;37.80;;;;;;5005871;28;20107;-61
2022/03/27 07:54:43;;;;;;;2.25;1.30;;;21.90;37.70;;;;;;5004817;28;20030;-64
2022/03/27 07:57:09;;;;;;;2.70;1.40;;;22.00;37.80;;;;;;5000223;28;20570;-62
2022/03/27 07:59:35;;;;;;;2.20;1.50;;;21.90;37.70;;;;;;5002156;28;20026;-63
2022/03/27 08:02:02;;;;;;;1.60;1.17;;;21.90;37.80;;;;;;5001930;28;20050;-63
2022/03/27 08:04:27;;;;;;;2.25;1.38;;;21.90;37.80;;;;;;5005003;28;20351;-61
2022/03/27 08:06:53;;;;;;;2.47;1.23;;;21.90;37.80;;;;;;5001052;28;20029;-60
2022/03/27 08:09:19;;;;;;;2.35;1.25;;;21.90;37.80;;;;;;4998637;28;20051;-64
2022/03/27 08:11:45;;;;;;;2.63;1.10;;;21.90;37.80;;;;;;4995818;28;20084;-63
2022/03/27 08:14:11;;;;;;;1.73;1.20;;;21.90;37.90;;;;;;5003649;28;20565;-62
2022/03/27 08:16:37;;;;;;;2.60;1.40;;;21.90;37.80;;;;;;4998300;28;20054;-63
2022/03/27 08:19:04;;;;;;;2.42;1.60;;;21.90;37.80;;;;;;5002715;28;20042;-64
2022/03/27 08:21:30;;;;;;;1.58;1.15;;;21.90;37.80;;;;;;5005223;28;20033;-64
2022/03/27 08:23:56;;;;;;;2.05;1.33;;;21.90;37.80;;;;;;5003384;28;20036;-60
2022/03/27 08:29:06;;;;;;;2.30;1.40;;;21.90;37.90;;;;;;5005277;28;20178;-61
2022/03/27 08:31:32;;;;;;;2.35;1.50;;;21.90;37.90;;;;;;5000248;28;20573;-64
2022/03/27 08:33:58;;;;;;;2.85;1.60;;;21.90;37.90;;;;;;5004480;28;20052;-62
2022/03/27 08:36:24;;;;;;;2.40;1.38;;;21.90;37.90;;;;;;5006210;28;20037;-61
2022/03/27 08:38:50;;;;;;;2.13;1.38;;;21.90;37.90;;;;;;5004981;28;20075;-60
2022/03/27 08:41:16;;;;;;;2.67;1.45;;;21.90;38.00;;;;;;5004931;28;20041;-61
2022/03/27 08:43:43;;;;;;;3.03;1.50;;;21.90;38.00;;;;;;5002237;28;20018;-61
2022/03/27 08:46:11;;;;;;;2.92;1.58;;;21.90;38.00;;;;;;5004257;28;20030;-64
2022/03/27 08:48:37;;;;;;;2.83;1.50;;;21.90;38.00;;;;;;5003912;28;20123;-61
2022/03/27 08:51:29;;;;;;;4.18;1.70;;;21.90;38.00;;;;;;5001692;28;20045;-62
2022/03/27 08:54:07;;;;;;;3.00;1.48;;;21.90;38.00;;;;;;4992136;28;20049;-67
2022/03/27 08:56:34;;;;;;;2.72;1.63;;;21.90;38.00;;;;;;5001302;28;20029;-65
2022/03/27 08:59:10;;;;;;;4.15;1.60;;;21.90;38.10;;;;;;5003133;28;20076;-63
2022/03/27 09:01:37;;;;;;;2.88;1.67;;;21.90;38.10;;;;;;5000279;28;20234;-61
2022/03/27 09:04:04;;;;;;;4.40;1.80;;;21.90;38.10;;;;;;5000156;28;20030;-66
2022/03/27 09:06:30;;;;;;;3.92;1.98;;;21.90;38.10;;;;;;5002305;28;20038;-67
2022/03/27 09:08:56;;;;;;;3.90;1.73;;;21.90;38.10;;;;;;5000917;28;20056;-65
2022/03/27 09:11:25;;;;;;;3.47;1.80;;;21.90;38.10;;;;;;5001043;28;20076;-64
2022/03/27 09:13:52;;;;;;;3.53;1.80;;;21.90;38.10;;;;;;4999548;28;20048;-62
2022/03/27 09:16:19;;;;;;;4.05;1.90;;;21.90;38.10;;;;;;4999033;28;20121;-64
2022/03/27 09:18:48;;;;;;;3.65;1.70;;;21.90;38.10;;;;;;5003384;28;20048;-64
2022/03/27 09:21:15;;;;;;;3.65;1.90;;;21.90;38.20;;;;;;5017205;28;20121;-63
2022/03/27 09:23:41;;;;;;;3.50;1.65;;;21.90;38.20;;;;;;5003168;28;20427;-63
2022/03/27 09:26:16;;;;;;;3.25;1.92;;;21.90;38.20;;;;;;5003012;28;20021;-64
2022/03/27 09:28:45;;;;;;;4.85;1.90;;;21.90;38.30;;;;;;5001476;28;20037;-63
2022/03/27 09:31:18;;;;;;;3.78;1.80;;;21.90;38.70;;;;;;4998312;28;20030;-64
2022/03/27 09:33:49;;;;;;;3.42;1.88;;;21.90;38.30;;;;;;5001987;28;20244;-64
2022/03/27 09:36:21;;;;;;;3.65;1.83;;;21.90;38.30;;;;;;5003367;28;20030;-64
2022/03/27 09:38:59;;;;;;;4.28;1.90;;;21.90;38.30;;;;;;5002235;28;20033;-63
2022/03/27 09:41:46;;;;;;;3.97;1.90;;;21.90;38.30;;;;;;4998273;28;20049;-63
2022/03/27 09:44:17;;;;;;;4.05;1.70;;;21.90;38.30;;;;;;5000598;28;20065;-64
2022/03/27 09:47:05;;;;;;;3.83;1.83;;;21.90;38.90;;;;;;4999862;28;20022;-64
2022/03/27 09:49:31;;;;;;;4.00;1.90;;;21.90;38.40;;;;;;5000812;28;20375;-64
2022/03/27 09:52:13;;;;;;;3.92;1.85;;;21.90;38.30;;;;;;4997898;28;20106;-63
2022/03/27 09:54:53;;;;;;;3.88;2.00;;;21.90;38.40;;;;;;4999281;28;20038;-64
2022/03/27 09:57:21;;;;;;;3.72;2.17;;;21.80;38.30;;;;;;4997786;28;20036;-65
2022/03/27 09:59:47;;;;;;;4.03;2.13;;;21.90;38.40;;;;;;4998319;28;20170;-65
2022/03/27 10:02:24;;;;;;;3.78;2.00;;;21.90;38.40;;;;;;5000324;28;20069;-63
2022/03/27 10:05:00;;;;;;;4.63;2.00;;;21.90;38.40;;;;;;4997938;28;20064;-64
2022/03/27 10:07:31;;;;;;;3.42;1.80;;;21.90;38.50;;;;;;5001034;28;20026;-63
2022/03/27 10:09:57;;;;;;;4.43;1.98;;;21.80;38.40;;;;;;4999611;28;20129;-62
2022/03/27 10:12:31;;;;;;;3.65;1.75;;;21.80;38.40;;;;;;4998336;28;20108;-63
2022/03/27 10:14:59;;;;;;;4.13;1.88;;;21.80;38.50;;;;;;5000347;28;20044;-63
2022/03/27 10:17:30;;;;;;;3.13;1.67;;;21.90;38.70;;;;;;4993566;28;20036;-65
2022/03/27 10:20:22;;;;;;;3.38;1.85;;;21.80;38.60;;;;;;5003060;28;20300;-61
2022/03/27 10:22:52;;;;;;;4.30;2.10;;;21.90;38.70;;;;;;5002819;28;20109;-64
2022/03/27 10:25:18;;;;;;;6.70;2.30;;;21.90;38.70;;;;;;5003162;28;20046;-62
2022/03/27 10:27:48;;;;;;;5.63;2.40;;;21.90;38.80;;;;;;5001752;28;20783;-63
2022/03/27 10:30:16;;;;;;;4.72;1.95;;;21.90;38.80;;;;;;5001141;28;21623;-65
2022/03/27 10:32:43;;;;;;;4.32;2.22;;;21.90;38.70;;;;;;5000829;28;20022;-61
2022/03/27 10:35:21;;;;;;;3.55;2.00;;;21.90;38.70;;;;;;4999469;28;20300;-64
2022/03/27 10:37:58;;;;;;;5.03;2.20;;;21.90;38.70;;;;;;5002641;28;20030;-62
2022/03/27 10:41:03;;;;;;;4.07;2.00;;;21.90;38.70;;;;;;4995516;28;20121;-63
2022/03/27 10:43:34;;;;;;;3.95;2.15;;;21.90;38.70;;;;;;4999092;28;20073;-66
2022/03/27 10:46:21;;;;;;;4.18;2.28;;;21.90;38.70;;;;;;5001305;28;20502;-65
2022/03/27 10:48:48;;;;;;;3.88;2.20;;;21.90;38.60;;;;;;4999732;28;20183;-63
2022/03/27 10:51:26;;;;;;;4.57;2.10;;;21.90;38.60;;;;;;4995409;28;20033;-64
2022/03/27 10:54:07;;;;;;;4.07;2.22;;;21.90;38.60;;;;;;4997006;28;20026;-62
2022/03/27 10:56:45;;;;;;;3.35;1.90;;;21.90;38.60;;;;;;5002770;28;20029;-64
2022/03/27 10:59:12;;;;;;;3.40;1.90;;;21.80;38.50;;;;;;5001060;28;20410;-66
2022/03/27 11:01:41;;;;;;;5.40;2.42;;;21.90;38.60;;;;;;5000889;28;20038;-66
2022/03/27 11:04:12;;;;;;;3.20;1.97;;;21.80;38.50;;;;;;4999771;28;20619;-62
2022/03/27 11:06:43;;;;;;;3.15;1.80;;;21.90;38.50;;;;;;5019003;28;20387;-64
2022/03/27 11:09:30;;;;;;;3.90;2.00;;;21.90;38.50;;;;;;5004310;28;20601;-66
2022/03/27 11:11:57;;;;;;;3.90;1.90;;;21.90;38.50;;;;;;4999715;28;20038;-62
2022/03/27 11:15:01;;;;;;;3.90;2.00;;;21.80;38.50;;;;;;5004342;28;20029;-64
2022/03/27 11:17:30;;;;;;;5.40;2.45;;;21.90;38.60;;;;;;4998060;28;20033;-66
2022/03/27 11:19:56;;;;;;;3.22;1.92;;;21.80;38.50;;;;;;5006024;28;20148;-64
2022/03/27 11:22:42;;;;;;;4.25;2.10;;;21.80;38.50;;;;;;5002598;28;20097;-64
2022/03/27 11:25:28;;;;;;;3.95;2.00;;;21.80;38.50;;;;;;5005985;28;20022;-64
2022/03/27 11:28:03;;;;;;;3.40;2.05;;;21.80;38.50;;;;;;5003909;28;20125;-64
2022/03/27 11:30:30;;;;;;;3.92;2.10;;;21.80;38.60;;;;;;5001784;28;20617;-64
2022/03/27 11:33:21;;;;;;;3.40;2.00;;;21.80;38.60;;;;;;4999723;28;20026;-66
2022/03/27 11:36:04;;;;;;;4.15;2.15;;;21.90;38.60;;;;;;5000061;28;20038;-64
2022/03/27 11:38:51;;;;;;;4.25;1.90;;;21.90;38.70;;;;;;5000416;28;20536;-65
2022/03/27 11:41:43;;;;;;;4.50;2.20;;;21.80;38.60;;;;;;5004055;28;20034;-64
2022/03/27 11:45:06;;;;;;;5.88;2.28;;;21.80;38.60;;;;;;5001828;28;20482;-64
2022/03/27 11:47:20;;;;;;;4.10;2.25;;;21.90;38.80;;;;;;4999595;28;20022;-64
2022/03/27 11:49:48;;;;;;;3.92;2.13;;;21.80;38.80;;;;;;5016632;28;20025;-61
2022/03/27 11:52:15;;;;;;;6.75;2.30;;;21.90;38.80;;;;;;4996659;28;20121;-65
2022/03/27 11:54:42;;;;;;;3.88;2.10;;;21.80;38.90;;;;;;5001276;28;20043;-65
2022/03/27 11:57:08;;;;;;;5.38;2.20;;;21.80;38.80;;;;;;4997471;28;20033;-65
2022/03/27 11:59:51;;;;;;;4.35;2.30;;;21.80;39.00;;;;;;5003451;28;20478;-64
2022/03/27 12:02:20;;;;;;;4.72;2.17;;;21.80;39.20;;;;;;4993128;28;20038;-63
2022/03/27 12:04:57;;;;;;;4.77;2.20;;;21.80;39.30;;;;;;5000530;28;20464;-64
2022/03/27 12:07:25;;;;;;;4.22;1.90;;;21.80;39.40;;;;;;5009106;28;20537;-64
2022/03/27 12:09:58;;;;;;;4.22;2.10;;;21.90;39.50;;;;;;4995043;28;20237;-64
2022/03/27 12:12:24;;;;;;;3.22;1.90;;;21.90;39.40;;;;;;4990240;28;21043;-64
2022/03/27 12:14:50;;;;;;;5.85;2.08;;;21.80;39.60;;;;;;4994808;28;20034;-65
2022/03/27 12:17:15;;;;;;;4.97;2.10;;;21.90;39.70;;;;;;4989551;28;20041;-62
2022/03/27 12:19:55;;;;;;;5.15;2.35;;;21.90;39.70;;;;;;4996406;28;20030;-63
2022/03/27 12:22:30;;;;;;;;;;;21.90;39.80;;;;;;5001645;28;20379;-64
2022/03/27 12:24:56;;;;;;;6.32;2.00;;;21.90;39.90;;;;;;5003208;28;19926;-64
2022/03/27 12:30:10;;;;;;;4.10;2.00;;;21.90;39.90;;;;;;5001579;28;20037;-66
2022/03/27 12:32:36;;;;;;;4.78;1.98;;;21.90;39.90;;;;;;4999755;28;20026;-62
2022/03/27 12:35:02;;;;;;;4.75;2.05;;;21.90;40.00;;;;;;4999704;28;20419;-64
2022/03/27 12:37:31;;;;;;;5.78;2.03;;;21.90;40.00;;;;;;5003036;28;20165;-64
2022/03/27 12:39:56;;;;;;;5.85;1.95;;;21.90;39.90;;;;;;5001978;28;20029;-64
2022/03/27 12:42:45;;;;;;;3.80;2.10;;;21.90;40.10;;;;;;5004093;28;20026;-64
2022/03/27 12:45:26;;;;;;;3.97;2.03;;;21.90;40.00;;;;;;5003144;28;20034;-62
2022/03/27 12:47:55;;;;;;;4.32;1.73;;;21.90;40.10;;;;;;5000461;28;20072;-64
2022/03/27 12:50:36;;;;;;;3.67;1.67;;;21.90;40.30;;;;;;5005051;28;20139;-66
2022/03/27 12:53:09;;;;;;;2.92;1.88;;;21.90;40.40;;;;;;5000636;28;20014;-62
2022/03/27 12:56:01;;;;;;;3.97;2.03;;;21.90;40.40;;;;;;5002839;28;20529;-65
2022/03/27 12:58:35;;;;;;;5.75;2.00;;;21.90;40.50;;;;;;5002145;28;20025;-63
2022/03/27 13:01:08;;;;;;;3.50;1.90;;;21.90;40.60;;;;;;4995770;28;20100;-62
2022/03/27 13:03:35;;;;;;;4.05;1.90;;;21.90;40.50;;;;;;4988620;28;20135;-64
2022/03/27 13:06:03;;;;;;;4.70;1.98;;;21.90;40.60;;;;;;4993512;28;20023;-64
2022/03/27 13:08:40;;;;;;;4.90;1.80;;;21.90;40.40;;;;;;4994759;28;20034;-64